createdAt,value
2018-03-22T00:00:03.513Z,31.1
2018-03-22T00:00:53.574Z,31.1
2018-03-22T00:01:43.328Z,31.1
2018-03-22T00:02:34.579Z,31.1
2018-03-22T00:03:23.950Z,31.1
2018-03-22T00:04:12.757Z,31.1
2018-03-22T00:05:03.590Z,31.1
2018-03-22T00:05:53.538Z,31.1
2018-03-22T00:06:44.179Z,31.1
2018-03-22T00:07:33.531Z,31
2018-03-22T00:08:23.797Z,31
2018-03-22T00:09:14.471Z,31
2018-03-22T00:10:02.921Z,30.9
2018-03-22T00:10:53.838Z,31
2018-03-22T00:11:44.518Z,31
2018-03-22T00:12:33.811Z,31
2018-03-22T00:13:24.493Z,31
2018-03-22T00:14:13.785Z,31
2018-03-22T00:15:03.583Z,31
2018-03-22T00:15:53.615Z,31
2018-03-22T00:16:44.567Z,30.9
2018-03-22T00:17:34.053Z,30.9
2018-03-22T00:18:24.908Z,30.9
2018-03-22T00:19:14.918Z,30.9
2018-03-22T00:20:04.977Z,30.9
2018-03-22T00:20:55.288Z,30.9
2018-03-22T00:21:45.018Z,30.9
2018-03-22T00:22:35.173Z,30.9
2018-03-22T00:23:25.518Z,30.9
2018-03-22T00:24:15.215Z,30.9
2018-03-22T00:25:05.557Z,30.9
2018-03-22T00:25:55.095Z,30.9
2018-03-22T00:26:45.780Z,30.9
2018-03-22T00:27:35.704Z,30.9
2018-03-22T00:28:26.067Z,30.9
2018-03-22T00:29:15.860Z,30.9
2018-03-22T00:30:05.124Z,30.9
2018-03-22T00:30:54.577Z,30.9
2018-03-22T00:31:45.827Z,30.9
2018-03-22T00:32:35.745Z,30.8
2018-03-22T00:33:25.854Z,30.8
2018-03-22T00:34:16.070Z,30.8
2018-03-22T00:35:05.172Z,30.8
2018-03-22T00:35:55.438Z,30.8
2018-03-22T00:36:45.966Z,30.8
2018-03-22T00:37:35.429Z,30.8
2018-03-22T00:38:26.224Z,30.8
2018-03-22T00:39:16.626Z,30.8
2018-03-22T00:40:06.346Z,30.8
2018-03-22T00:40:56.669Z,30.8
2018-03-22T00:41:46.612Z,30.8
2018-03-22T00:42:37.124Z,30.8
2018-03-22T00:43:26.538Z,30.8
2018-03-22T00:44:15.981Z,30.8
2018-03-22T00:45:06.869Z,30.8
2018-03-22T00:45:56.122Z,30.8
2018-03-22T00:46:46.954Z,30.8
2018-03-22T00:47:36.431Z,30.8
2018-03-22T00:48:25.916Z,30.8
2018-03-22T00:49:17.327Z,30.8
2018-03-22T00:50:06.873Z,30.7
2018-03-22T00:50:56.760Z,30.8
2018-03-22T00:51:46.890Z,30.8
2018-03-22T00:52:37.016Z,30.7
2018-03-22T00:53:27.146Z,30.8
2018-03-22T00:54:16.878Z,30.7
2018-03-22T00:55:06.467Z,30.7
2018-03-22T00:55:57.076Z,30.7
2018-03-22T00:56:47.561Z,30.6
2018-03-22T00:57:37.993Z,30.7
2018-03-22T00:58:27.001Z,30.7
2018-03-22T00:59:17.056Z,30.7
2018-03-22T01:00:08.236Z,30.6
2018-03-22T01:00:58.650Z,30.6
2018-03-22T01:01:47.878Z,30.6
2018-03-22T01:02:37.981Z,30.6
2018-03-22T01:03:27.641Z,30.6
2018-03-22T01:04:18.297Z,30.6
2018-03-22T01:05:07.865Z,30.6
2018-03-22T01:05:57.900Z,30.6
2018-03-22T01:06:48.440Z,30.6
2018-03-22T01:07:38.198Z,30.6
2018-03-22T01:08:27.482Z,30.6
2018-03-22T01:09:18.729Z,30.6
2018-03-22T01:10:07.969Z,30.6
2018-03-22T01:10:58.738Z,30.6
2018-03-22T01:11:48.902Z,30.6
2018-03-22T01:12:38.970Z,30.6
2018-03-22T01:13:28.624Z,30.5
2018-03-22T01:14:18.677Z,30.6
2018-03-22T01:15:09.036Z,30.6
2018-03-22T01:15:59.370Z,30.6
2018-03-22T01:16:48.654Z,30.5
2018-03-22T01:17:39.253Z,30.5
2018-03-22T01:18:28.309Z,30.5
2018-03-22T01:19:19.455Z,30.5
2018-03-22T01:20:08.829Z,30.5
2018-03-22T01:20:58.370Z,30.5
2018-03-22T01:21:49.009Z,30.5
2018-03-22T01:22:39.421Z,30.5
2018-03-22T01:23:28.649Z,30.5
2018-03-22T01:24:18.905Z,30.5
2018-03-22T01:25:08.844Z,30.5
2018-03-22T01:25:59.592Z,30.5
2018-03-22T01:26:50.039Z,30.5
2018-03-22T01:27:39.704Z,30.5
2018-03-22T01:28:29.544Z,30.4
2018-03-22T01:29:18.544Z,30.4
2018-03-22T01:30:09.391Z,30.4
2018-03-22T01:30:59.364Z,30.4
2018-03-22T01:31:49.615Z,30.4
2018-03-22T01:32:39.997Z,30.4
2018-03-22T01:33:29.769Z,30.4
2018-03-22T01:34:19.987Z,30.4
2018-03-22T01:35:10.449Z,30.4
2018-03-22T01:36:00.276Z,30.4
2018-03-22T01:36:50.864Z,30.4
2018-03-22T01:37:40.831Z,30.4
2018-03-22T01:38:29.307Z,30.4
2018-03-22T01:39:20.222Z,30.4
2018-03-22T01:40:10.506Z,30.4
2018-03-22T01:41:00.643Z,30.4
2018-03-22T01:41:50.324Z,30.3
2018-03-22T01:42:40.312Z,30.4
2018-03-22T01:43:30.916Z,30.3
2018-03-22T01:44:20.191Z,30.3
2018-03-22T01:45:10.215Z,30.3
2018-03-22T01:46:01.008Z,30.4
2018-03-22T01:46:50.951Z,30.3
2018-03-22T01:47:41.328Z,30.3
2018-03-22T01:48:31.375Z,30.3
2018-03-22T01:49:21.010Z,30.3
2018-03-22T01:50:11.766Z,30.3
2018-03-22T01:51:00.558Z,30.3
2018-03-22T01:51:51.590Z,30.3
2018-03-22T01:52:40.955Z,30.3
2018-03-22T01:53:31.231Z,30.3
2018-03-22T01:54:21.296Z,30.3
2018-03-22T01:55:11.056Z,30.3
2018-03-22T01:56:01.131Z,30.3
2018-03-22T01:56:51.355Z,30.3
2018-03-22T01:57:42.014Z,30.3
2018-03-22T01:58:32.949Z,30.2
2018-03-22T01:59:21.260Z,30.3
2018-03-22T02:00:11.428Z,30.3
2018-03-22T02:01:02.030Z,30.3
2018-03-22T02:01:52.284Z,30.3
2018-03-22T02:02:42.630Z,30.3
2018-03-22T02:03:32.596Z,30.3
2018-03-22T02:04:21.860Z,30.4
2018-03-22T02:05:12.025Z,30.4
2018-03-22T02:06:01.625Z,30.5
2018-03-22T02:06:52.922Z,30.6
2018-03-22T02:07:42.136Z,30.7
2018-03-22T02:08:31.962Z,30.8
2018-03-22T02:09:22.527Z,30.8
2018-03-22T02:10:12.422Z,30.9
2018-03-22T02:11:02.832Z,31
2018-03-22T02:11:53.554Z,31
2018-03-22T02:12:42.534Z,31.1
2018-03-22T02:13:32.437Z,31.2
2018-03-22T02:14:22.581Z,31.3
2018-03-22T02:15:12.928Z,31.3
2018-03-22T02:16:02.803Z,31.4
2018-03-22T02:16:52.470Z,31.4
2018-03-22T02:17:42.935Z,31.5
2018-03-22T02:18:33.467Z,31.6
2018-03-22T02:19:23.546Z,31.6
2018-03-22T02:20:13.381Z,31.7
2018-03-22T02:21:02.631Z,31.8
2018-03-22T02:21:53.280Z,31.8
2018-03-22T02:22:43.524Z,31.8
2018-03-22T02:23:33.309Z,31.9
2018-03-22T02:24:24.169Z,32
2018-03-22T02:25:13.046Z,32.1
2018-03-22T02:26:03.711Z,32.1
2018-03-22T02:26:54.152Z,32.2
2018-03-22T02:27:44.125Z,32.3
2018-03-22T02:28:34.188Z,32.3
2018-03-22T02:29:23.775Z,32.3
2018-03-22T02:30:14.878Z,32.4
2018-03-22T02:31:03.856Z,32.4
2018-03-22T02:31:53.916Z,32.5
2018-03-22T02:32:43.984Z,32.6
2018-03-22T02:33:34.554Z,32.7
2018-03-22T02:34:24.000Z,32.8
2018-03-22T02:35:14.058Z,32.8
2018-03-22T02:36:03.629Z,32.9
2018-03-22T02:36:54.463Z,32.9
2018-03-22T02:37:45.194Z,33
2018-03-22T02:38:34.182Z,33.1
2018-03-22T02:39:24.166Z,33.1
2018-03-22T02:40:15.207Z,33.2
2018-03-22T02:41:04.811Z,33.3
2018-03-22T02:41:54.708Z,33.4
2018-03-22T02:42:43.807Z,33.4
2018-03-22T02:43:34.160Z,33.5
2018-03-22T02:44:25.669Z,33.6
2018-03-22T02:45:14.666Z,33.6
2018-03-22T02:46:05.371Z,33.8
2018-03-22T02:46:55.258Z,33.8
2018-03-22T02:47:45.065Z,33.9
2018-03-22T02:48:35.257Z,34
2018-03-22T02:49:25.353Z,34.1
2018-03-22T02:50:15.683Z,34.1
2018-03-22T02:51:05.458Z,34.3
2018-03-22T02:51:55.001Z,34.3
2018-03-22T02:52:46.252Z,34.4
2018-03-22T02:53:35.425Z,34.4
2018-03-22T02:54:25.091Z,34.6
2018-03-22T02:55:16.046Z,34.6
2018-03-22T02:56:05.528Z,34.7
2018-03-22T02:56:55.685Z,34.8
2018-03-22T02:57:45.324Z,34.8
2018-03-22T02:58:35.973Z,34.9
2018-03-22T02:59:26.075Z,35
2018-03-22T03:00:16.611Z,35.1
2018-03-22T03:01:05.962Z,35.2
2018-03-22T03:01:56.590Z,35.3
2018-03-22T03:02:46.294Z,35.3
2018-03-22T03:03:35.746Z,35.4
2018-03-22T03:04:25.896Z,35.5
2018-03-22T03:05:15.944Z,35.6
2018-03-22T03:06:06.491Z,35.6
2018-03-22T03:06:56.487Z,35.7
2018-03-22T03:07:47.186Z,35.8
2018-03-22T03:08:37.048Z,35.9
2018-03-22T03:09:25.934Z,35.9
2018-03-22T03:10:15.789Z,36
2018-03-22T03:11:06.954Z,36.1
2018-03-22T03:11:56.096Z,36.1
2018-03-22T03:12:46.837Z,36.1
2018-03-22T03:13:36.988Z,36.2
2018-03-22T03:14:27.129Z,36.3
2018-03-22T03:15:17.044Z,36.3
2018-03-22T03:16:07.569Z,36.3
2018-03-22T03:16:56.966Z,36.4
2018-03-22T03:17:46.772Z,36.4
2018-03-22T03:18:37.155Z,36.4
2018-03-22T03:19:27.758Z,36.5
2018-03-22T03:20:16.791Z,36.5
2018-03-22T03:21:07.622Z,36.6
2018-03-22T03:21:58.436Z,36.6
2018-03-22T03:22:47.455Z,36.6
2018-03-22T03:23:38.305Z,36.6
2018-03-22T03:24:27.072Z,36.7
2018-03-22T03:25:17.220Z,36.7
2018-03-22T03:26:07.885Z,36.8
2018-03-22T03:26:57.142Z,36.8
2018-03-22T03:27:47.597Z,36.8
2018-03-22T03:28:37.968Z,36.8
2018-03-22T03:29:28.424Z,36.8
2018-03-22T03:30:17.756Z,36.8
2018-03-22T03:31:08.149Z,36.8
2018-03-22T03:31:58.349Z,36.9
2018-03-22T03:32:47.868Z,36.9
2018-03-22T03:33:37.927Z,36.9
2018-03-22T03:34:29.314Z,36.9
2018-03-22T03:35:18.046Z,36.9
2018-03-22T03:36:08.702Z,37
2018-03-22T03:36:58.665Z,37
2018-03-22T03:37:47.814Z,37
2018-03-22T03:38:37.975Z,37
2018-03-22T03:39:28.480Z,37.1
2018-03-22T03:40:18.587Z,37.1
2018-03-22T03:41:08.737Z,37.1
2018-03-22T03:41:58.314Z,37.1
2018-03-22T03:42:48.460Z,37.1
2018-03-22T03:43:39.719Z,37.1
2018-03-22T03:44:28.974Z,37.1
2018-03-22T03:45:19.528Z,37.2
2018-03-22T03:46:08.770Z,37.2
2018-03-22T03:46:59.935Z,37.2
2018-03-22T03:47:48.833Z,37.2
2018-03-22T03:48:40.004Z,37.3
2018-03-22T03:49:28.842Z,37.3
2018-03-22T03:50:19.052Z,37.3
2018-03-22T03:51:09.642Z,37.3
2018-03-22T03:51:59.201Z,37.3
2018-03-22T03:52:50.172Z,37.3
2018-03-22T03:53:39.411Z,37.3
2018-03-22T03:54:29.864Z,37.3
2018-03-22T03:55:19.424Z,37.3
2018-03-22T03:56:10.017Z,37.3
2018-03-22T03:57:00.123Z,37.3
2018-03-22T03:57:50.200Z,37.3
2018-03-22T03:58:39.921Z,37.2
2018-03-22T03:59:30.645Z,37.2
2018-03-22T04:00:19.660Z,37.2
2018-03-22T04:01:10.933Z,37.2
2018-03-22T04:02:00.194Z,37.2
2018-03-22T04:02:50.037Z,37.2
2018-03-22T04:03:40.578Z,37.3
2018-03-22T04:04:30.281Z,37.3
2018-03-22T04:05:20.897Z,37.2
2018-03-22T04:06:10.747Z,37.3
2018-03-22T04:06:59.873Z,37.3
2018-03-22T04:07:50.795Z,37.3
2018-03-22T04:08:40.356Z,37.3
2018-03-22T04:09:30.915Z,37.3
2018-03-22T04:10:21.053Z,37.3
2018-03-22T04:11:11.387Z,37.3
2018-03-22T04:12:02.275Z,37.3
2018-03-22T04:12:51.715Z,37.3
2018-03-22T04:13:41.775Z,37.3
2018-03-22T04:14:30.973Z,37.3
2018-03-22T04:15:21.018Z,37.3
2018-03-22T04:16:11.492Z,37.4
2018-03-22T04:17:01.584Z,37.4
2018-03-22T04:17:51.299Z,37.4
2018-03-22T04:18:40.852Z,37.4
2018-03-22T04:19:31.500Z,37.4
2018-03-22T04:20:21.855Z,37.5
2018-03-22T04:21:11.640Z,37.5
2018-03-22T04:22:01.260Z,37.5
2018-03-22T04:22:51.934Z,37.5
2018-03-22T04:23:41.970Z,37.4
2018-03-22T04:24:31.949Z,37.4
2018-03-22T04:25:21.454Z,37.4
2018-03-22T04:26:11.073Z,37.4
2018-03-22T04:27:02.126Z,37.4
2018-03-22T04:27:53.110Z,37.4
2018-03-22T04:28:42.644Z,37.4
2018-03-22T04:29:32.637Z,37.4
2018-03-22T04:30:22.931Z,37.4
2018-03-22T04:31:13.306Z,37.3
2018-03-22T04:32:02.489Z,37.3
2018-03-22T04:32:52.922Z,37.3
2018-03-22T04:33:42.580Z,37.3
2018-03-22T04:34:32.713Z,37.3
2018-03-22T04:35:22.717Z,37.3
2018-03-22T04:36:12.581Z,37.3
2018-03-22T04:37:02.136Z,37.3
2018-03-22T04:37:52.965Z,37.2
2018-03-22T04:38:43.111Z,37.2
2018-03-22T04:39:33.600Z,37.2
2018-03-22T04:40:22.739Z,37.2
2018-03-22T04:41:12.617Z,37.2
2018-03-22T04:42:02.675Z,37.2
2018-03-22T04:42:53.827Z,37.2
2018-03-22T04:43:42.898Z,37.1
2018-03-22T04:44:33.270Z,37.1
2018-03-22T04:45:23.433Z,37.1
2018-03-22T04:46:12.680Z,37.1
2018-03-22T04:47:02.567Z,37.1
2018-03-22T04:47:53.895Z,37.1
2018-03-22T04:48:44.117Z,37.1
2018-03-22T04:49:33.496Z,37.1
2018-03-22T04:50:23.570Z,37.1
2018-03-22T04:51:12.957Z,37
2018-03-22T04:52:03.475Z,37
2018-03-22T04:52:53.453Z,36.9
2018-03-22T04:53:44.811Z,36.9
2018-03-22T04:54:34.919Z,36.9
2018-03-22T04:55:24.917Z,36.9
2018-03-22T04:56:14.998Z,36.9
2018-03-22T04:57:04.732Z,36.9
2018-03-22T04:57:55.121Z,36.9
2018-03-22T04:58:44.885Z,36.9
2018-03-22T04:59:35.249Z,36.9
2018-03-22T05:00:25.024Z,36.9
2018-03-22T05:01:15.095Z,36.9
2018-03-22T05:02:03.995Z,36.9
2018-03-22T05:02:55.461Z,36.9
2018-03-22T05:03:45.261Z,36.9
2018-03-22T05:04:35.597Z,36.9
2018-03-22T05:05:25.641Z,36.9
2018-03-22T05:06:15.727Z,36.8
2018-03-22T05:07:05.542Z,36.8
2018-03-22T05:07:56.096Z,36.8
2018-03-22T05:08:45.303Z,36.8
2018-03-22T05:09:36.180Z,36.8
2018-03-22T05:10:26.279Z,36.8
2018-03-22T05:11:16.049Z,36.8
2018-03-22T05:12:05.849Z,36.8
2018-03-22T05:12:55.849Z,36.8
2018-03-22T05:13:46.009Z,36.8
2018-03-22T05:14:36.283Z,36.7
2018-03-22T05:15:26.130Z,36.7
2018-03-22T05:16:16.115Z,36.7
2018-03-22T05:17:06.500Z,36.6
2018-03-22T05:17:56.488Z,36.6
2018-03-22T05:18:47.085Z,36.6
2018-03-22T05:19:36.334Z,36.6
2018-03-22T05:20:26.429Z,36.6
2018-03-22T05:21:17.001Z,36.6
2018-03-22T05:22:06.782Z,36.6
2018-03-22T05:22:56.289Z,36.6
2018-03-22T05:23:47.229Z,36.6
2018-03-22T05:24:37.287Z,36.6
2018-03-22T05:25:26.761Z,36.6
2018-03-22T05:26:17.336Z,36.6
2018-03-22T05:27:07.171Z,36.6
2018-03-22T05:27:57.196Z,36.6
2018-03-22T05:28:47.534Z,36.6
2018-03-22T05:29:37.301Z,36.6
2018-03-22T05:30:27.095Z,36.6
2018-03-22T05:31:17.774Z,36.6
2018-03-22T05:32:07.203Z,36.5
2018-03-22T05:32:57.239Z,36.5
2018-03-22T05:33:47.601Z,36.5
2018-03-22T05:34:37.714Z,36.5
2018-03-22T05:35:28.013Z,36.4
2018-03-22T05:36:18.031Z,36.4
2018-03-22T05:37:07.871Z,36.4
2018-03-22T05:37:57.882Z,36.4
2018-03-22T05:38:48.216Z,36.4
2018-03-22T05:39:38.255Z,36.4
2018-03-22T05:40:28.343Z,36.4
2018-03-22T05:41:18.090Z,36.4
2018-03-22T05:42:07.947Z,36.4
2018-03-22T05:42:57.744Z,36.4
2018-03-22T05:43:48.087Z,36.4
2018-03-22T05:44:38.135Z,36.4
2018-03-22T05:45:26.464Z,36.3
2018-03-22T05:46:18.002Z,36.3
2018-03-22T05:47:07.393Z,36.3
2018-03-22T05:47:57.935Z,36.3
2018-03-22T05:48:48.068Z,36.3
2018-03-22T05:49:38.165Z,36.2
2018-03-22T05:50:28.379Z,36.2
2018-03-22T05:51:17.789Z,36.1
2018-03-22T05:52:08.186Z,36.1
2018-03-22T05:52:57.693Z,36.1
2018-03-22T05:53:48.433Z,36.1
2018-03-22T05:54:37.708Z,36.1
2018-03-22T05:55:27.973Z,36.1
2018-03-22T05:56:18.224Z,36.1
2018-03-22T05:57:08.752Z,36
2018-03-22T05:57:58.752Z,36
2018-03-22T05:58:48.875Z,36
2018-03-22T05:59:38.956Z,35.9
2018-03-22T06:00:29.090Z,35.9
2018-03-22T06:01:19.284Z,35.9
2018-03-22T06:02:08.628Z,35.9
2018-03-22T06:02:58.612Z,35.9
2018-03-22T06:03:48.958Z,35.9
2018-03-22T06:04:38.597Z,35.8
2018-03-22T06:05:28.684Z,35.8
2018-03-22T06:06:18.723Z,35.8
2018-03-22T06:07:08.300Z,35.8
2018-03-22T06:07:58.985Z,35.8
2018-03-22T06:08:49.828Z,35.8
2018-03-22T06:09:39.262Z,35.8
2018-03-22T06:10:29.310Z,35.8
2018-03-22T06:11:20.322Z,35.7
2018-03-22T06:12:08.931Z,35.7
2018-03-22T06:12:59.637Z,35.7
2018-03-22T06:13:49.075Z,35.6
2018-03-22T06:14:39.774Z,35.6
2018-03-22T06:15:28.984Z,35.6
2018-03-22T06:16:20.298Z,35.6
2018-03-22T06:17:09.205Z,35.6
2018-03-22T06:18:00.215Z,35.5
2018-03-22T06:18:49.711Z,35.4
2018-03-22T06:19:39.734Z,35.4
2018-03-22T06:20:29.807Z,35.4
2018-03-22T06:21:20.264Z,35.4
2018-03-22T06:22:10.096Z,35.4
2018-03-22T06:22:59.858Z,35.3
2018-03-22T06:23:50.711Z,35.3
2018-03-22T06:24:40.184Z,35.3
2018-03-22T06:25:29.589Z,35.2
2018-03-22T06:26:20.532Z,35.2
2018-03-22T06:27:09.456Z,35.2
2018-03-22T06:28:00.828Z,35.2
2018-03-22T06:28:51.109Z,35.1
2018-03-22T06:29:40.276Z,35.1
2018-03-22T06:30:29.417Z,35.1
2018-03-22T06:31:20.739Z,35.1
2018-03-22T06:32:11.178Z,35.1
2018-03-22T06:33:00.861Z,35
2018-03-22T06:33:50.053Z,35
2018-03-22T06:34:41.180Z,35
2018-03-22T06:35:30.973Z,34.9
2018-03-22T06:36:20.920Z,34.9
2018-03-22T06:37:11.886Z,34.9
2018-03-22T06:38:00.578Z,34.9
2018-03-22T06:38:51.174Z,34.8
2018-03-22T06:39:41.137Z,34.8
2018-03-22T06:40:30.230Z,34.8
2018-03-22T06:41:21.195Z,34.8
2018-03-22T06:42:11.501Z,34.8
2018-03-22T06:43:01.729Z,34.7
2018-03-22T06:43:51.595Z,34.7
2018-03-22T06:44:41.412Z,34.7
2018-03-22T06:45:31.140Z,34.6
2018-03-22T06:46:21.145Z,34.6
2018-03-22T06:47:11.828Z,34.6
2018-03-22T06:48:01.435Z,34.6
2018-03-22T06:48:51.582Z,34.5
2018-03-22T06:49:41.949Z,34.4
2018-03-22T06:50:31.980Z,34.4
2018-03-22T06:51:21.655Z,34.4
2018-03-22T06:52:12.483Z,34.4
2018-03-22T06:53:02.720Z,34.3
2018-03-22T06:53:51.730Z,34.3
2018-03-22T06:54:42.248Z,34.2
2018-03-22T06:55:31.860Z,34.1
2018-03-22T06:56:21.455Z,34.1
2018-03-22T06:57:11.953Z,34
2018-03-22T06:58:02.884Z,34
2018-03-22T06:58:52.259Z,33.9
2018-03-22T06:59:42.322Z,33.9
2018-03-22T07:00:33.078Z,33.8
2018-03-22T07:01:22.547Z,33.8
2018-03-22T07:02:12.667Z,33.8
2018-03-22T07:03:03.618Z,33.7
2018-03-22T07:03:53.647Z,33.6
2018-03-22T07:04:43.201Z,33.6
2018-03-22T07:05:32.715Z,33.5
2018-03-22T07:06:22.898Z,33.4
2018-03-22T07:07:12.133Z,33.3
2018-03-22T07:08:03.199Z,33.2
2018-03-22T07:08:52.931Z,33.1
2018-03-22T07:09:43.396Z,33
2018-03-22T07:10:33.304Z,32.9
2018-03-22T07:11:23.513Z,32.9
2018-03-22T07:12:13.893Z,32.8
2018-03-22T07:13:03.861Z,32.8
2018-03-22T07:13:53.725Z,32.7
2018-03-22T07:14:44.052Z,32.6
2018-03-22T07:15:33.106Z,32.6
2018-03-22T07:16:23.865Z,32.5
2018-03-22T07:17:14.016Z,32.4
2018-03-22T07:18:04.226Z,32.4
2018-03-22T07:18:54.173Z,32.3
2018-03-22T07:19:44.508Z,32.3
2018-03-22T07:20:34.085Z,32.4
2018-03-22T07:21:24.296Z,32.3
2018-03-22T07:22:14.286Z,32.2
2018-03-22T07:23:04.496Z,32.2
2018-03-22T07:23:54.482Z,32.2
2018-03-22T07:24:44.762Z,32.1
2018-03-22T07:25:33.728Z,32.1
2018-03-22T07:26:24.167Z,32
2018-03-22T07:27:14.705Z,32
2018-03-22T07:28:04.472Z,32
2018-03-22T07:28:54.435Z,31.9
2018-03-22T07:29:45.188Z,32
2018-03-22T07:30:34.920Z,31.9
2018-03-22T07:31:25.471Z,31.9
2018-03-22T07:32:15.333Z,31.9
2018-03-22T07:33:05.304Z,31.9
2018-03-22T07:33:55.712Z,31.9
2018-03-22T07:34:44.837Z,31.9
2018-03-22T07:35:36.324Z,31.9
2018-03-22T07:36:26.082Z,31.8
2018-03-22T07:37:15.862Z,31.8
2018-03-22T07:38:06.364Z,31.8
2018-03-22T07:38:56.293Z,31.8
2018-03-22T07:39:46.068Z,31.8
2018-03-22T07:40:35.860Z,31.7
2018-03-22T07:41:25.292Z,31.7
2018-03-22T07:42:15.769Z,31.6
2018-03-22T07:43:05.331Z,31.7
2018-03-22T07:43:55.401Z,31.6
2018-03-22T07:44:46.053Z,31.6
2018-03-22T07:45:36.004Z,31.6
2018-03-22T07:46:26.351Z,31.6
2018-03-22T07:47:16.702Z,31.6
2018-03-22T07:48:06.077Z,31.6
2018-03-22T07:48:56.815Z,31.6
2018-03-22T07:49:45.970Z,31.5
2018-03-22T07:50:36.059Z,31.6
2018-03-22T07:51:27.002Z,31.4
2018-03-22T07:52:16.235Z,31.5
2018-03-22T07:53:07.300Z,31.4
2018-03-22T07:53:56.747Z,31.4
2018-03-22T07:54:47.370Z,31.4
2018-03-22T07:55:36.850Z,31.4
2018-03-22T07:56:26.837Z,31.4
2018-03-22T07:57:17.886Z,31.4
2018-03-22T07:58:06.839Z,31.4
2018-03-22T07:58:57.223Z,31.3
2018-03-22T07:59:47.495Z,31.3
2018-03-22T08:00:37.250Z,31.3
2018-03-22T08:01:25.235Z,31.3
2018-03-22T08:02:16.350Z,31.3
2018-03-22T08:03:06.510Z,31.3
2018-03-22T08:03:57.159Z,31.3
2018-03-22T08:04:47.239Z,31.2
2018-03-22T08:05:37.665Z,31.3
2018-03-22T08:06:27.140Z,31.3
2018-03-22T08:07:17.689Z,31.2
2018-03-22T08:08:07.359Z,31.2
2018-03-22T08:08:57.396Z,31.2
2018-03-22T08:09:48.464Z,31.2
2018-03-22T08:10:37.292Z,31.2
2018-03-22T08:11:26.990Z,31.1
2018-03-22T08:12:18.310Z,31.1
2018-03-22T08:13:07.581Z,31.1
2018-03-22T08:13:57.660Z,31.1
2018-03-22T08:14:47.602Z,31.1
2018-03-22T08:15:37.569Z,31.1
2018-03-22T08:16:28.569Z,31.1
2018-03-22T08:17:17.801Z,31.1
2018-03-22T08:18:08.718Z,31.1
2018-03-22T08:18:57.875Z,31.1
2018-03-22T08:19:47.137Z,31.1
2018-03-22T08:20:38.805Z,31
2018-03-22T08:21:28.130Z,31
2018-03-22T08:22:18.023Z,31
2018-03-22T08:23:08.006Z,31
2018-03-22T08:23:58.128Z,31
2018-03-22T08:24:48.087Z,31
2018-03-22T08:25:37.609Z,31
2018-03-22T08:26:28.868Z,30.9
2018-03-22T08:27:18.863Z,30.9
2018-03-22T08:28:08.998Z,30.9
2018-03-22T08:28:59.355Z,30.9
2018-03-22T08:29:48.779Z,30.9
2018-03-22T08:30:37.914Z,30.9
2018-03-22T08:31:28.453Z,30.9
2018-03-22T08:32:18.699Z,30.9
2018-03-22T08:33:08.794Z,30.9
2018-03-22T08:33:59.366Z,30.9
2018-03-22T08:34:50.180Z,30.8
2018-03-22T08:35:39.067Z,30.8
2018-03-22T08:36:29.740Z,30.8
2018-03-22T08:37:19.832Z,30.7
2018-03-22T08:38:09.002Z,30.6
2018-03-22T08:38:59.443Z,30.6
2018-03-22T08:39:49.215Z,30.6
2018-03-22T08:40:39.747Z,30.5
2018-03-22T08:41:30.017Z,30.5
2018-03-22T08:42:19.909Z,30.5
2018-03-22T08:43:10.997Z,30.4
2018-03-22T08:43:59.887Z,30.4
2018-03-22T08:44:49.785Z,30.4
2018-03-22T08:45:39.425Z,30.4
2018-03-22T08:46:30.787Z,30.3
2018-03-22T08:47:19.925Z,30.3
2018-03-22T08:48:10.198Z,30.3
2018-03-22T08:49:00.441Z,30.3
2018-03-22T08:49:50.399Z,30.3
2018-03-22T08:50:41.092Z,30.2
2018-03-22T08:51:30.937Z,30.2
2018-03-22T08:52:20.519Z,30.2
2018-03-22T08:53:10.052Z,30.2
2018-03-22T08:54:00.942Z,30.2
2018-03-22T08:54:52.324Z,30.1
2018-03-22T08:55:41.610Z,30.1
2018-03-22T08:56:31.609Z,30.1
2018-03-22T08:57:21.215Z,30.1
2018-03-22T08:58:11.034Z,30.1
2018-03-22T08:59:01.069Z,30.1
2018-03-22T08:59:50.577Z,30.1
2018-03-22T09:00:41.071Z,30.1
2018-03-22T09:01:30.723Z,30
2018-03-22T09:02:21.284Z,30
2018-03-22T09:03:11.046Z,30
2018-03-22T09:04:01.073Z,29.9
2018-03-22T09:04:52.252Z,29.9
2018-03-22T09:05:41.284Z,29.9
2018-03-22T09:06:32.133Z,29.9
2018-03-22T09:07:21.320Z,29.9
2018-03-22T09:08:11.942Z,29.9
2018-03-22T09:09:02.521Z,29.9
2018-03-22T09:09:51.951Z,29.9
2018-03-22T09:10:42.206Z,29.9
2018-03-22T09:11:32.218Z,29.9
2018-03-22T09:12:20.894Z,29.9
2018-03-22T09:13:11.985Z,29.8
2018-03-22T09:14:02.357Z,29.8
2018-03-22T09:14:51.828Z,29.9
2018-03-22T09:15:41.970Z,29.8
2018-03-22T09:16:31.852Z,29.8
2018-03-22T09:17:22.562Z,29.8
2018-03-22T09:18:12.347Z,29.8
2018-03-22T09:19:02.512Z,29.8
2018-03-22T09:19:52.585Z,29.8
2018-03-22T09:20:42.221Z,29.8
2018-03-22T09:21:31.935Z,29.8
2018-03-22T09:22:22.364Z,29.8
2018-03-22T09:23:12.713Z,29.7
2018-03-22T09:24:02.656Z,29.8
2018-03-22T09:24:52.558Z,29.8
2018-03-22T09:25:42.277Z,29.7
2018-03-22T09:26:32.657Z,29.7
2018-03-22T09:27:23.310Z,29.7
2018-03-22T09:28:12.905Z,29.7
2018-03-22T09:29:03.617Z,29.7
2018-03-22T09:29:52.680Z,29.6
2018-03-22T09:30:44.024Z,29.7
2018-03-22T09:31:33.300Z,29.6
2018-03-22T09:32:23.133Z,29.6
2018-03-22T09:33:13.442Z,29.6
2018-03-22T09:34:03.712Z,29.6
2018-03-22T09:34:54.389Z,29.6
2018-03-22T09:35:43.557Z,29.6
2018-03-22T09:36:32.842Z,29.6
2018-03-22T09:37:22.997Z,29.6
2018-03-22T09:38:14.522Z,29.6
2018-03-22T09:39:04.094Z,29.6
2018-03-22T09:39:54.341Z,29.6
2018-03-22T09:40:43.031Z,29.6
2018-03-22T09:41:34.069Z,29.5
2018-03-22T09:42:23.636Z,29.5
2018-03-22T09:43:13.392Z,29.5
2018-03-22T09:44:04.369Z,29.5
2018-03-22T09:44:54.004Z,29.5
2018-03-22T09:45:43.874Z,29.4
2018-03-22T09:46:33.311Z,29.4
2018-03-22T09:47:24.354Z,29.4
2018-03-22T09:48:14.241Z,29.3
2018-03-22T09:49:04.854Z,29.2
2018-03-22T09:49:54.854Z,29.1
2018-03-22T09:50:44.797Z,29
2018-03-22T09:51:33.944Z,28.9
2018-03-22T09:52:24.713Z,28.8
2018-03-22T09:53:14.788Z,28.6
2018-03-22T09:54:04.155Z,28.5
2018-03-22T09:54:54.501Z,28.4
2018-03-22T09:55:45.374Z,28.2
2018-03-22T09:56:34.809Z,28.1
2018-03-22T09:57:25.853Z,28
2018-03-22T09:58:15.032Z,27.9
2018-03-22T09:59:06.253Z,27.8
2018-03-22T09:59:56.293Z,27.6
2018-03-22T10:00:46.053Z,27.6
2018-03-22T10:01:36.392Z,27.4
2018-03-22T10:02:26.438Z,27.3
2018-03-22T10:03:16.203Z,27.2
2018-03-22T10:04:06.022Z,27.1
2018-03-22T10:04:55.845Z,27
2018-03-22T10:05:45.379Z,26.9
2018-03-22T10:06:36.697Z,26.8
2018-03-22T10:07:26.827Z,26.8
2018-03-22T10:08:16.530Z,26.5
2018-03-22T10:09:06.147Z,26.6
2018-03-22T10:09:55.885Z,26.4
2018-03-22T10:10:45.955Z,26.4
2018-03-22T10:11:36.805Z,26.3
2018-03-22T10:12:27.131Z,26.2
2018-03-22T10:13:16.705Z,26.2
2018-03-22T10:14:06.167Z,26.1
2018-03-22T10:14:56.275Z,26.1
2018-03-22T10:15:46.885Z,26
2018-03-22T10:16:36.904Z,25.9
2018-03-22T10:17:26.327Z,25.9
2018-03-22T10:18:17.295Z,25.8
2018-03-22T10:19:07.032Z,25.8
2018-03-22T10:19:56.855Z,25.7
2018-03-22T10:20:47.406Z,25.6
2018-03-22T10:21:36.944Z,25.6
2018-03-22T10:22:27.310Z,25.5
2018-03-22T10:23:17.368Z,25.4
2018-03-22T10:24:06.550Z,25.4
2018-03-22T10:24:57.454Z,25.4
2018-03-22T10:25:46.726Z,25.3
2018-03-22T10:26:37.812Z,25.3
2018-03-22T10:27:27.640Z,25.1
2018-03-22T10:28:17.381Z,25.1
2018-03-22T10:29:07.421Z,25
2018-03-22T10:29:58.352Z,25
2018-03-22T10:30:47.636Z,24.9
2018-03-22T10:31:37.957Z,24.8
2018-03-22T10:32:28.194Z,24.8
2018-03-22T10:33:18.617Z,24.7
2018-03-22T10:34:07.502Z,24.6
2018-03-22T10:34:57.604Z,24.6
2018-03-22T10:35:47.897Z,24.5
2018-03-22T10:36:36.661Z,24.4
2018-03-22T10:37:27.235Z,24.4
2018-03-22T10:38:18.833Z,24.4
2018-03-22T10:39:07.449Z,24.3
2018-03-22T10:39:57.183Z,24.3
2018-03-22T10:40:48.073Z,24.2
2018-03-22T10:41:38.462Z,24.1
2018-03-22T10:42:28.414Z,24.1
2018-03-22T10:43:18.652Z,24.1
2018-03-22T10:44:07.416Z,23.9
2018-03-22T10:44:59.090Z,23.9
2018-03-22T10:45:47.569Z,23.9
2018-03-22T10:46:37.829Z,23.8
2018-03-22T10:47:27.985Z,23.8
2018-03-22T10:48:19.040Z,23.8
2018-03-22T10:49:08.633Z,23.8
2018-03-22T10:49:58.255Z,23.7
2018-03-22T10:50:48.345Z,23.6
2018-03-22T10:51:38.272Z,23.6
2018-03-22T10:52:29.499Z,23.6
2018-03-22T10:53:19.075Z,23.5
2018-03-22T10:54:08.732Z,23.4
2018-03-22T10:54:58.883Z,23.4
2018-03-22T10:55:49.648Z,23.4
2018-03-22T10:56:38.637Z,23.4
2018-03-22T10:57:28.391Z,23.4
2018-03-22T10:58:18.863Z,23.3
2018-03-22T10:59:09.766Z,23.3
2018-03-22T10:59:58.554Z,23.3
2018-03-22T11:00:49.285Z,23.3
2018-03-22T11:01:38.670Z,23.2
2018-03-22T11:02:28.893Z,23.1
2018-03-22T11:03:19.632Z,23.1
2018-03-22T11:04:09.850Z,23.1
2018-03-22T11:04:58.980Z,23.1
2018-03-22T11:05:49.659Z,23.1
2018-03-22T11:06:40.314Z,23.1
2018-03-22T11:07:29.582Z,23
2018-03-22T11:08:20.383Z,23
2018-03-22T11:09:09.974Z,22.9